Cape Saint James, Canada
Current Conditions -  °F | °C
As of 10:25 PM on Wednesday 28 Jan 2015 (Local Time) from CYZP Reporting Station
Overcast Overcast  
Wind Chill: 38°   Ceiling: 7500
Heat Index: 46°   Visibility: 9mi
Dew Point: 45°   Wind: 28mph
Humidity: 93%   Direction: 140°SE
Pressure: 30.11"   Gusts: 33mph
Location:  51.94°N, 131.02°W
Report Text: CYZP 290625Z AUTO 14024G29KT 9SM OVC075 08/07 A3011 RMK SLP197
Loading
Personal Weather Stations






























Interactive Weather Map New forecast layout! Learn more

10-Day Weather Forecast

Advertisements
Track Severe Weather on mobile